sensor_id;sensor_type;location;lat;lon;timestamp;P1;durP1;ratioP1;P2;durP2;ratioP2
63218;SDS011;49320;52.512;13.448;2023-06-10T00:00:43;5.70;;;2.88;;
63218;SDS011;49320;52.512;13.448;2023-06-10T00:03:10;4.93;;;2.92;;
63218;SDS011;49320;52.512;13.448;2023-06-10T00:05:38;5.38;;;2.72;;
63218;SDS011;49320;52.512;13.448;2023-06-10T00:08:06;6.82;;;3.50;;
63218;SDS011;49320;52.512;13.448;2023-06-10T00:10:34;5.03;;;3.38;;
63218;SDS011;49320;52.512;13.448;2023-06-10T00:13:02;4.28;;;3.25;;
63218;SDS011;49320;52.512;13.448;2023-06-10T00:15:31;5.18;;;3.30;;
63218;SDS011;49320;52.512;13.448;2023-06-10T00:17:57;5.03;;;3.63;;
63218;SDS011;49320;52.512;13.448;2023-06-10T00:20:24;5.95;;;2.78;;
63218;SDS011;49320;52.512;13.448;2023-06-10T00:22:52;5.78;;;3.20;;
63218;SDS011;49320;52.512;13.448;2023-06-10T00:25:18;5.38;;;3.33;;
63218;SDS011;49320;52.512;13.448;2023-06-10T00:27:45;6.85;;;3.30;;
63218;SDS011;49320;52.512;13.448;2023-06-10T00:30:12;8.68;;;3.17;;
63218;SDS011;49320;52.512;13.448;2023-06-10T00:32:40;6.00;;;3.13;;
63218;SDS011;49320;52.512;13.448;2023-06-10T00:35:07;7.18;;;3.20;;
63218;SDS011;49320;52.512;13.448;2023-06-10T00:37:34;4.63;;;2.90;;
63218;SDS011;49320;52.512;13.448;2023-06-10T00:40:02;5.50;;;2.95;;
63218;SDS011;49320;52.512;13.448;2023-06-10T00:42:31;6.93;;;3.58;;
63218;SDS011;49320;52.512;13.448;2023-06-10T00:44:58;5.85;;;3.13;;
63218;SDS011;49320;52.512;13.448;2023-06-10T00:47:25;6.68;;;3.08;;
63218;SDS011;49320;52.512;13.448;2023-06-10T00:49:53;6.82;;;3.47;;
63218;SDS011;49320;52.512;13.448;2023-06-10T00:52:21;7.88;;;3.60;;
63218;SDS011;49320;52.512;13.448;2023-06-10T00:54:53;3.70;;;2.67;;
63218;SDS011;49320;52.512;13.448;2023-06-10T00:57:21;5.55;;;3.00;;
63218;SDS011;49320;52.512;13.448;2023-06-10T00:59:48;5.68;;;2.83;;
63218;SDS011;49320;52.512;13.448;2023-06-10T01:02:15;5.15;;;2.67;;
63218;SDS011;49320;52.512;13.448;2023-06-10T01:04:43;6.15;;;3.13;;
63218;SDS011;49320;52.512;13.448;2023-06-10T01:07:23;6.25;;;3.45;;
63218;SDS011;49320;52.512;13.448;2023-06-10T01:15:30;5.25;;;2.95;;
63218;SDS011;49320;52.512;13.448;2023-06-10T01:17:58;9.27;;;3.42;;
63218;SDS011;49320;52.512;13.448;2023-06-10T01:20:29;4.00;;;2.72;;
63218;SDS011;49320;52.512;13.448;2023-06-10T01:22:59;4.72;;;3.10;;
63218;SDS011;49320;52.512;13.448;2023-06-10T01:25:27;6.32;;;3.22;;
63218;SDS011;49320;52.512;13.448;2023-06-10T01:27:58;6.43;;;3.28;;
63218;SDS011;49320;52.512;13.448;2023-06-10T01:31:06;4.05;;;3.05;;
63218;SDS011;49320;52.512;13.448;2023-06-10T01:33:39;4.20;;;2.92;;
63218;SDS011;49320;52.512;13.448;2023-06-10T01:36:15;4.70;;;2.97;;
63218;SDS011;49320;52.512;13.448;2023-06-10T01:38:45;6.15;;;3.20;;
63218;SDS011;49320;52.512;13.448;2023-06-10T01:41:18;6.18;;;2.90;;
63218;SDS011;49320;52.512;13.448;2023-06-10T01:43:48;5.15;;;3.00;;
63218;SDS011;49320;52.512;13.448;2023-06-10T01:46:15;4.95;;;3.53;;
63218;SDS011;49320;52.512;13.448;2023-06-10T01:48:46;6.97;;;3.17;;
63218;SDS011;49320;52.512;13.448;2023-06-10T01:51:13;4.70;;;2.97;;
63218;SDS011;49320;52.512;13.448;2023-06-10T01:53:40;5.18;;;2.78;;
63218;SDS011;49320;52.512;13.448;2023-06-10T01:56:07;4.95;;;3.28;;
63218;SDS011;49320;52.512;13.448;2023-06-10T01:58:34;4.75;;;2.88;;
63218;SDS011;49320;52.512;13.448;2023-06-10T02:01:00;5.38;;;2.83;;
63218;SDS011;49320;52.512;13.448;2023-06-10T02:03:28;6.35;;;3.42;;
63218;SDS011;49320;52.512;13.448;2023-06-10T02:05:55;4.20;;;2.55;;
63218;SDS011;49320;52.512;13.448;2023-06-10T02:08:22;6.35;;;3.22;;
63218;SDS011;49320;52.512;13.448;2023-06-10T02:10:49;8.05;;;3.70;;
63218;SDS011;49320;52.512;13.448;2023-06-10T02:13:16;4.40;;;2.70;;
63218;SDS011;49320;52.512;13.448;2023-06-10T02:15:43;4.88;;;3.03;;
63218;SDS011;49320;52.512;13.448;2023-06-10T02:18:09;6.07;;;3.17;;
63218;SDS011;49320;52.512;13.448;2023-06-10T02:20:38;6.45;;;3.33;;
63218;SDS011;49320;52.512;13.448;2023-06-10T02:23:05;5.60;;;2.80;;
63218;SDS011;49320;52.512;13.448;2023-06-10T02:25:32;4.07;;;3.10;;
63218;SDS011;49320;52.512;13.448;2023-06-10T02:27:59;5.75;;;3.25;;
63218;SDS011;49320;52.512;13.448;2023-06-10T02:30:27;5.05;;;3.10;;
63218;SDS011;49320;52.512;13.448;2023-06-10T02:32:53;5.95;;;3.30;;
63218;SDS011;49320;52.512;13.448;2023-06-10T02:35:22;6.00;;;3.42;;
63218;SDS011;49320;52.512;13.448;2023-06-10T02:37:50;5.45;;;2.83;;
63218;SDS011;49320;52.512;13.448;2023-06-10T02:40:17;7.15;;;3.15;;
63218;SDS011;49320;52.512;13.448;2023-06-10T02:42:43;6.13;;;3.65;;
63218;SDS011;49320;52.512;13.448;2023-06-10T02:45:11;7.32;;;3.22;;
63218;SDS011;49320;52.512;13.448;2023-06-10T02:47:38;6.45;;;3.67;;
63218;SDS011;49320;52.512;13.448;2023-06-10T02:50:06;6.93;;;3.50;;
63218;SDS011;49320;52.512;13.448;2023-06-10T02:52:33;6.53;;;3.38;;
63218;SDS011;49320;52.512;13.448;2023-06-10T02:55:00;4.75;;;2.90;;
63218;SDS011;49320;52.512;13.448;2023-06-10T02:57:27;4.88;;;3.40;;
63218;SDS011;49320;52.512;13.448;2023-06-10T02:59:54;5.97;;;2.78;;
63218;SDS011;49320;52.512;13.448;2023-06-10T03:02:21;9.27;;;3.90;;
63218;SDS011;49320;52.512;13.448;2023-06-10T03:04:48;4.30;;;3.05;;
63218;SDS011;49320;52.512;13.448;2023-06-10T03:07:16;7.75;;;3.85;;
63218;SDS011;49320;52.512;13.448;2023-06-10T03:09:44;5.50;;;3.10;;
63218;SDS011;49320;52.512;13.448;2023-06-10T03:12:11;7.10;;;3.55;;
63218;SDS011;49320;52.512;13.448;2023-06-10T03:14:38;6.78;;;3.60;;
63218;SDS011;49320;52.512;13.448;2023-06-10T03:17:05;4.95;;;3.30;;
63218;SDS011;49320;52.512;13.448;2023-06-10T03:19:32;6.28;;;3.33;;
63218;SDS011;49320;52.512;13.448;2023-06-10T03:22:15;6.47;;;3.17;;
63218;SDS011;49320;52.512;13.448;2023-06-10T03:24:43;6.03;;;3.50;;
63218;SDS011;49320;52.512;13.448;2023-06-10T03:27:12;6.80;;;3.33;;
63218;SDS011;49320;52.512;13.448;2023-06-10T03:29:39;7.75;;;3.70;;
63218;SDS011;49320;52.512;13.448;2023-06-10T03:32:06;6.43;;;3.70;;
63218;SDS011;49320;52.512;13.448;2023-06-10T03:34:34;5.80;;;3.20;;
63218;SDS011;49320;52.512;13.448;2023-06-10T03:37:00;4.40;;;3.45;;
63218;SDS011;49320;52.512;13.448;2023-06-10T03:39:28;6.15;;;3.58;;
63218;SDS011;49320;52.512;13.448;2023-06-10T03:41:57;6.10;;;3.08;;
63218;SDS011;49320;52.512;13.448;2023-06-10T03:44:24;6.55;;;3.33;;
63218;SDS011;49320;52.512;13.448;2023-06-10T03:46:55;4.75;;;3.00;;
63218;SDS011;49320;52.512;13.448;2023-06-10T03:49:23;6.10;;;3.60;;
63218;SDS011;49320;52.512;13.448;2023-06-10T03:51:53;6.55;;;3.40;;
63218;SDS011;49320;52.512;13.448;2023-06-10T03:54:20;6.05;;;3.20;;
63218;SDS011;49320;52.512;13.448;2023-06-10T03:56:47;7.85;;;3.75;;
63218;SDS011;49320;52.512;13.448;2023-06-10T03:59:14;5.63;;;3.50;;
63218;SDS011;49320;52.512;13.448;2023-06-10T04:01:41;9.02;;;4.28;;
63218;SDS011;49320;52.512;13.448;2023-06-10T04:04:09;12.20;;;4.22;;
63218;SDS011;49320;52.512;13.448;2023-06-10T04:06:40;8.55;;;3.83;;
63218;SDS011;49320;52.512;13.448;2023-06-10T04:09:07;8.15;;;3.75;;
63218;SDS011;49320;52.512;13.448;2023-06-10T04:11:34;8.57;;;3.40;;
63218;SDS011;49320;52.512;13.448;2023-06-10T04:14:01;5.78;;;3.58;;
63218;SDS011;49320;52.512;13.448;2023-06-10T04:16:28;8.43;;;3.80;;
63218;SDS011;49320;52.512;13.448;2023-06-10T04:18:55;6.78;;;3.60;;
63218;SDS011;49320;52.512;13.448;2023-06-10T04:21:22;5.72;;;3.50;;
63218;SDS011;49320;52.512;13.448;2023-06-10T04:23:48;6.80;;;3.88;;
63218;SDS011;49320;52.512;13.448;2023-06-10T04:26:16;6.22;;;3.80;;
63218;SDS011;49320;52.512;13.448;2023-06-10T04:28:43;5.55;;;3.47;;
63218;SDS011;49320;52.512;13.448;2023-06-10T04:31:10;6.32;;;3.67;;
63218;SDS011;49320;52.512;13.448;2023-06-10T04:33:38;5.47;;;3.72;;
63218;SDS011;49320;52.512;13.448;2023-06-10T04:36:04;5.72;;;3.95;;
63218;SDS011;49320;52.512;13.448;2023-06-10T04:38:32;9.00;;;4.40;;
63218;SDS011;49320;52.512;13.448;2023-06-10T04:40:59;5.53;;;3.63;;
63218;SDS011;49320;52.512;13.448;2023-06-10T04:43:26;5.38;;;3.58;;
63218;SDS011;49320;52.512;13.448;2023-06-10T04:45:55;5.57;;;3.88;;
63218;SDS011;49320;52.512;13.448;2023-06-10T04:48:21;6.05;;;4.28;;
63218;SDS011;49320;52.512;13.448;2023-06-10T04:50:50;5.05;;;3.45;;
63218;SDS011;49320;52.512;13.448;2023-06-10T04:53:16;5.93;;;3.78;;
63218;SDS011;49320;52.512;13.448;2023-06-10T04:55:44;7.30;;;3.65;;
63218;SDS011;49320;52.512;13.448;2023-06-10T04:58:12;6.03;;;4.03;;
63218;SDS011;49320;52.512;13.448;2023-06-10T05:00:39;6.85;;;4.25;;
63218;SDS011;49320;52.512;13.448;2023-06-10T05:03:06;5.50;;;3.80;;
63218;SDS011;49320;52.512;13.448;2023-06-10T05:05:33;6.88;;;3.70;;
63218;SDS011;49320;52.512;13.448;2023-06-10T05:08:00;6.25;;;3.58;;
63218;SDS011;49320;52.512;13.448;2023-06-10T05:10:27;8.43;;;3.90;;
63218;SDS011;49320;52.512;13.448;2023-06-10T05:12:57;5.82;;;3.80;;
63218;SDS011;49320;52.512;13.448;2023-06-10T05:15:24;5.93;;;3.72;;
63218;SDS011;49320;52.512;13.448;2023-06-10T05:17:51;6.70;;;4.28;;
63218;SDS011;49320;52.512;13.448;2023-06-10T05:20:18;5.25;;;3.60;;
63218;SDS011;49320;52.512;13.448;2023-06-10T05:22:46;5.47;;;3.53;;
63218;SDS011;49320;52.512;13.448;2023-06-10T05:25:12;5.35;;;3.85;;
63218;SDS011;49320;52.512;13.448;2023-06-10T05:27:39;5.80;;;3.90;;
63218;SDS011;49320;52.512;13.448;2023-06-10T05:30:09;7.85;;;4.70;;
63218;SDS011;49320;52.512;13.448;2023-06-10T05:32:37;5.70;;;3.83;;
63218;SDS011;49320;52.512;13.448;2023-06-10T05:35:04;7.97;;;4.47;;
63218;SDS011;49320;52.512;13.448;2023-06-10T05:37:33;6.18;;;4.32;;
63218;SDS011;49320;52.512;13.448;2023-06-10T05:40:03;8.30;;;4.25;;
63218;SDS011;49320;52.512;13.448;2023-06-10T05:42:31;6.82;;;4.18;;
63218;SDS011;49320;52.512;13.448;2023-06-10T05:44:58;7.53;;;4.22;;
63218;SDS011;49320;52.512;13.448;2023-06-10T05:47:25;6.88;;;4.15;;
63218;SDS011;49320;52.512;13.448;2023-06-10T05:49:51;6.43;;;4.57;;
63218;SDS011;49320;52.512;13.448;2023-06-10T05:52:18;5.38;;;4.05;;
63218;SDS011;49320;52.512;13.448;2023-06-10T05:54:45;5.47;;;4.43;;
63218;SDS011;49320;52.512;13.448;2023-06-10T05:57:12;5.65;;;4.15;;
63218;SDS011;49320;52.512;13.448;2023-06-10T05:59:39;5.90;;;3.72;;
63218;SDS011;49320;52.512;13.448;2023-06-10T06:02:07;5.63;;;4.30;;
63218;SDS011;49320;52.512;13.448;2023-06-10T06:04:34;4.70;;;3.70;;
63218;SDS011;49320;52.512;13.448;2023-06-10T06:07:01;5.88;;;4.32;;
63218;SDS011;49320;52.512;13.448;2023-06-10T06:09:28;6.60;;;4.20;;
63218;SDS011;49320;52.512;13.448;2023-06-10T06:11:55;5.35;;;4.00;;
63218;SDS011;49320;52.512;13.448;2023-06-10T06:14:22;5.47;;;3.83;;
63218;SDS011;49320;52.512;13.448;2023-06-10T06:16:48;6.93;;;4.53;;
63218;SDS011;49320;52.512;13.448;2023-06-10T06:19:16;7.05;;;4.15;;
63218;SDS011;49320;52.512;13.448;2023-06-10T06:21:43;4.93;;;4.00;;
63218;SDS011;49320;52.512;13.448;2023-06-10T06:24:10;4.80;;;4.30;;
63218;SDS011;49320;52.512;13.448;2023-06-10T06:26:37;8.55;;;4.35;;
63218;SDS011;49320;52.512;13.448;2023-06-10T06:29:04;4.97;;;4.15;;
63218;SDS011;49320;52.512;13.448;2023-06-10T06:31:31;7.22;;;4.30;;
63218;SDS011;49320;52.512;13.448;2023-06-10T06:33:58;4.63;;;3.70;;
63218;SDS011;49320;52.512;13.448;2023-06-10T06:36:25;11.18;;;4.85;;
63218;SDS011;49320;52.512;13.448;2023-06-10T06:38:52;6.45;;;4.28;;
63218;SDS011;49320;52.512;13.448;2023-06-10T06:41:19;6.10;;;4.13;;
63218;SDS011;49320;52.512;13.448;2023-06-10T06:43:48;5.45;;;3.95;;
63218;SDS011;49320;52.512;13.448;2023-06-10T06:46:14;5.40;;;4.13;;
63218;SDS011;49320;52.512;13.448;2023-06-10T06:48:43;7.32;;;4.13;;
63218;SDS011;49320;52.512;13.448;2023-06-10T06:51:10;4.88;;;4.07;;
63218;SDS011;49320;52.512;13.448;2023-06-10T06:53:37;5.32;;;4.18;;
63218;SDS011;49320;52.512;13.448;2023-06-10T06:56:10;4.93;;;4.10;;
63218;SDS011;49320;52.512;13.448;2023-06-10T06:58:38;8.48;;;4.40;;
63218;SDS011;49320;52.512;13.448;2023-06-10T07:01:05;6.57;;;4.80;;
63218;SDS011;49320;52.512;13.448;2023-06-10T07:03:32;8.50;;;4.50;;
63218;SDS011;49320;52.512;13.448;2023-06-10T07:06:00;8.73;;;5.00;;
63218;SDS011;49320;52.512;13.448;2023-06-10T07:08:27;5.35;;;4.20;;
63218;SDS011;49320;52.512;13.448;2023-06-10T07:10:54;5.43;;;4.60;;
63218;SDS011;49320;52.512;13.448;2023-06-10T07:13:20;6.43;;;4.18;;
63218;SDS011;49320;52.512;13.448;2023-06-10T07:15:47;7.65;;;4.20;;
63218;SDS011;49320;52.512;13.448;2023-06-10T07:18:15;6.20;;;4.28;;
63218;SDS011;49320;52.512;13.448;2023-06-10T07:20:43;5.15;;;4.35;;
63218;SDS011;49320;52.512;13.448;2023-06-10T07:23:10;5.90;;;4.72;;
63218;SDS011;49320;52.512;13.448;2023-06-10T07:25:37;5.18;;;4.60;;
63218;SDS011;49320;52.512;13.448;2023-06-10T07:28:04;6.18;;;4.65;;
63218;SDS011;49320;52.512;13.448;2023-06-10T07:30:31;5.30;;;4.68;;
63218;SDS011;49320;52.512;13.448;2023-06-10T07:32:58;6.55;;;5.78;;
63218;SDS011;49320;52.512;13.448;2023-06-10T07:35:25;5.80;;;5.10;;
63218;SDS011;49320;52.512;13.448;2023-06-10T07:37:51;6.57;;;4.55;;
63218;SDS011;49320;52.512;13.448;2023-06-10T07:40:18;5.68;;;4.40;;
63218;SDS011;49320;52.512;13.448;2023-06-10T07:42:45;6.07;;;4.65;;
63218;SDS011;49320;52.512;13.448;2023-06-10T07:45:12;5.82;;;3.65;;
63218;SDS011;49320;52.512;13.448;2023-06-10T07:47:39;7.47;;;4.13;;
63218;SDS011;49320;52.512;13.448;2023-06-10T07:50:06;6.18;;;4.38;;
63218;SDS011;49320;52.512;13.448;2023-06-10T07:52:34;6.88;;;4.45;;
63218;SDS011;49320;52.512;13.448;2023-06-10T07:55:01;5.93;;;4.25;;
63218;SDS011;49320;52.512;13.448;2023-06-10T07:57:28;6.13;;;4.55;;
63218;SDS011;49320;52.512;13.448;2023-06-10T07:59:54;4.55;;;4.10;;
63218;SDS011;49320;52.512;13.448;2023-06-10T08:02:23;4.63;;;3.72;;
63218;SDS011;49320;52.512;13.448;2023-06-10T08:04:51;5.55;;;4.10;;
63218;SDS011;49320;52.512;13.448;2023-06-10T08:07:18;4.95;;;4.25;;
63218;SDS011;49320;52.512;13.448;2023-06-10T08:09:45;5.18;;;3.90;;
63218;SDS011;49320;52.512;13.448;2023-06-10T08:12:12;5.75;;;4.38;;
63218;SDS011;49320;52.512;13.448;2023-06-10T08:14:39;6.20;;;4.50;;
63218;SDS011;49320;52.512;13.448;2023-06-10T08:17:06;5.63;;;4.30;;
63218;SDS011;49320;52.512;13.448;2023-06-10T08:19:33;6.85;;;4.45;;
63218;SDS011;49320;52.512;13.448;2023-06-10T08:22:00;5.63;;;4.20;;
63218;SDS011;49320;52.512;13.448;2023-06-10T08:24:26;5.78;;;4.82;;
63218;SDS011;49320;52.512;13.448;2023-06-10T08:26:53;5.50;;;4.03;;
63218;SDS011;49320;52.512;13.448;2023-06-10T08:29:22;7.15;;;4.45;;
63218;SDS011;49320;52.512;13.448;2023-06-10T08:31:49;6.97;;;4.45;;
63218;SDS011;49320;52.512;13.448;2023-06-10T08:34:16;9.57;;;4.78;;
63218;SDS011;49320;52.512;13.448;2023-06-10T08:36:43;7.43;;;4.72;;
63218;SDS011;49320;52.512;13.448;2023-06-10T08:39:11;6.65;;;4.93;;
63218;SDS011;49320;52.512;13.448;2023-06-10T08:41:40;6.63;;;5.07;;
63218;SDS011;49320;52.512;13.448;2023-06-10T08:44:17;5.78;;;4.70;;
63218;SDS011;49320;52.512;13.448;2023-06-10T08:46:53;6.10;;;4.68;;
63218;SDS011;49320;52.512;13.448;2023-06-10T08:49:26;6.13;;;4.32;;
63218;SDS011;49320;52.512;13.448;2023-06-10T08:52:00;5.97;;;4.60;;
63218;SDS011;49320;52.512;13.448;2023-06-10T08:54:33;5.77;;;4.57;;
63218;SDS011;49320;52.512;13.448;2023-06-10T08:57:04;5.95;;;4.45;;
63218;SDS011;49320;52.512;13.448;2023-06-10T08:59:32;5.95;;;5.13;;
63218;SDS011;49320;52.512;13.448;2023-06-10T09:02:00;5.93;;;4.80;;
63218;SDS011;49320;52.512;13.448;2023-06-10T09:04:30;5.57;;;4.72;;
63218;SDS011;49320;52.512;13.448;2023-06-10T09:06:57;5.50;;;4.40;;
63218;SDS011;49320;52.512;13.448;2023-06-10T09:09:25;7.22;;;4.18;;
63218;SDS011;49320;52.512;13.448;2023-06-10T09:11:56;5.07;;;4.30;;
63218;SDS011;49320;52.512;13.448;2023-06-10T09:14:25;5.70;;;4.28;;
63218;SDS011;49320;52.512;13.448;2023-06-10T09:16:52;5.78;;;4.57;;
63218;SDS011;49320;52.512;13.448;2023-06-10T09:19:23;5.68;;;4.80;;
63218;SDS011;49320;52.512;13.448;2023-06-10T09:21:53;6.00;;;4.22;;
63218;SDS011;49320;52.512;13.448;2023-06-10T09:24:24;6.85;;;4.65;;
63218;SDS011;49320;52.512;13.448;2023-06-10T09:27:01;6.40;;;4.55;;
63218;SDS011;49320;52.512;13.448;2023-06-10T09:32:37;6.60;;;4.30;;
63218;SDS011;49320;52.512;13.448;2023-06-10T09:35:09;5.68;;;4.32;;
63218;SDS011;49320;52.512;13.448;2023-06-10T09:37:38;7.28;;;4.45;;
63218;SDS011;49320;52.512;13.448;2023-06-10T09:40:05;5.88;;;4.10;;
63218;SDS011;49320;52.512;13.448;2023-06-10T09:42:36;4.93;;;4.15;;
63218;SDS011;49320;52.512;13.448;2023-06-10T09:45:05;5.85;;;4.25;;
63218;SDS011;49320;52.512;13.448;2023-06-10T09:47:33;7.10;;;4.78;;
63218;SDS011;49320;52.512;13.448;2023-06-10T09:50:01;6.57;;;4.35;;
63218;SDS011;49320;52.512;13.448;2023-06-10T09:52:28;5.90;;;4.25;;
63218;SDS011;49320;52.512;13.448;2023-06-10T09:54:59;8.18;;;4.32;;
63218;SDS011;49320;52.512;13.448;2023-06-10T09:57:31;5.97;;;4.28;;
63218;SDS011;49320;52.512;13.448;2023-06-10T10:00:03;5.50;;;4.80;;
63218;SDS011;49320;52.512;13.448;2023-06-10T10:02:32;6.27;;;4.80;;
63218;SDS011;49320;52.512;13.448;2023-06-10T10:05:20;5.13;;;3.92;;
63218;SDS011;49320;52.512;13.448;2023-06-10T10:07:49;7.43;;;4.40;;
63218;SDS011;49320;52.512;13.448;2023-06-10T10:10:18;5.32;;;4.63;;
63218;SDS011;49320;52.512;13.448;2023-06-10T10:12:48;5.65;;;4.30;;
63218;SDS011;49320;52.512;13.448;2023-06-10T10:15:22;5.80;;;4.50;;
63218;SDS011;49320;52.512;13.448;2023-06-10T10:18:00;5.32;;;4.10;;
63218;SDS011;49320;52.512;13.448;2023-06-10T10:20:46;6.97;;;4.65;;
63218;SDS011;49320;52.512;13.448;2023-06-10T10:23:21;4.80;;;3.92;;
63218;SDS011;49320;52.512;13.448;2023-06-10T10:26:07;6.05;;;4.15;;
63218;SDS011;49320;52.512;13.448;2023-06-10T10:28:38;4.47;;;4.07;;
63218;SDS011;49320;52.512;13.448;2023-06-10T10:31:14;4.90;;;4.15;;
63218;SDS011;49320;52.512;13.448;2023-06-10T10:33:51;4.43;;;3.67;;
63218;SDS011;49320;52.512;13.448;2023-06-10T10:36:24;4.45;;;3.67;;
63218;SDS011;49320;52.512;13.448;2023-06-10T10:38:52;3.70;;;3.40;;
63218;SDS011;49320;52.512;13.448;2023-06-10T10:41:20;4.15;;;3.60;;
63218;SDS011;49320;52.512;13.448;2023-06-10T10:43:49;3.53;;;3.22;;
63218;SDS011;49320;52.512;13.448;2023-06-10T10:46:17;7.00;;;3.28;;
63218;SDS011;49320;52.512;13.448;2023-06-10T10:48:44;3.67;;;2.92;;
63218;SDS011;49320;52.512;13.448;2023-06-10T10:51:18;4.68;;;3.10;;
63218;SDS011;49320;52.512;13.448;2023-06-10T10:54:09;4.25;;;2.95;;
63218;SDS011;49320;52.512;13.448;2023-06-10T10:56:37;3.38;;;3.08;;
63218;SDS011;49320;52.512;13.448;2023-06-10T10:59:05;3.65;;;3.25;;
63218;SDS011;49320;52.512;13.448;2023-06-10T11:01:39;4.15;;;3.33;;
63218;SDS011;49320;52.512;13.448;2023-06-10T11:04:08;4.15;;;3.35;;
63218;SDS011;49320;52.512;13.448;2023-06-10T11:06:36;3.40;;;3.10;;
63218;SDS011;49320;52.512;13.448;2023-06-10T11:11:57;3.03;;;2.72;;
63218;SDS011;49320;52.512;13.448;2023-06-10T11:14:27;4.50;;;3.20;;
63218;SDS011;49320;52.512;13.448;2023-06-10T11:16:59;3.35;;;3.05;;
63218;SDS011;49320;52.512;13.448;2023-06-10T11:19:35;3.63;;;3.20;;
63218;SDS011;49320;52.512;13.448;2023-06-10T11:22:07;4.05;;;3.33;;
63218;SDS011;49320;52.512;13.448;2023-06-10T11:24:36;3.72;;;3.15;;
63218;SDS011;49320;52.512;13.448;2023-06-10T11:27:22;3.05;;;2.72;;
63218;SDS011;49320;52.512;13.448;2023-06-10T11:32:46;3.50;;;3.08;;
63218;SDS011;49320;52.512;13.448;2023-06-10T11:35:19;3.40;;;2.90;;
63218;SDS011;49320;52.512;13.448;2023-06-10T11:37:47;4.60;;;2.90;;
63218;SDS011;49320;52.512;13.448;2023-06-10T11:40:15;3.67;;;3.05;;
63218;SDS011;49320;52.512;13.448;2023-06-10T11:42:42;3.42;;;3.13;;
63218;SDS011;49320;52.512;13.448;2023-06-10T11:45:14;3.65;;;3.35;;
63218;SDS011;49320;52.512;13.448;2023-06-10T11:47:55;3.70;;;3.38;;
63218;SDS011;49320;52.512;13.448;2023-06-10T11:50:32;3.83;;;2.97;;
63218;SDS011;49320;52.512;13.448;2023-06-10T11:53:00;3.58;;;3.10;;
63218;SDS011;49320;52.512;13.448;2023-06-10T11:58:18;3.88;;;3.33;;
63218;SDS011;49320;52.512;13.448;2023-06-10T12:00:50;3.55;;;3.25;;
63218;SDS011;49320;52.512;13.448;2023-06-10T12:03:31;6.13;;;3.90;;
63218;SDS011;49320;52.512;13.448;2023-06-10T12:06:04;3.95;;;3.50;;
63218;SDS011;49320;52.512;13.448;2023-06-10T12:08:33;4.45;;;3.60;;
63218;SDS011;49320;52.512;13.448;2023-06-10T12:11:08;3.70;;;3.40;;
63218;SDS011;49320;52.512;13.448;2023-06-10T12:13:36;4.30;;;3.88;;
63218;SDS011;49320;52.512;13.448;2023-06-10T12:16:07;4.13;;;3.65;;
63218;SDS011;49320;52.512;13.448;2023-06-10T12:18:35;4.50;;;3.58;;
63218;SDS011;49320;52.512;13.448;2023-06-10T12:21:02;4.28;;;3.72;;
63218;SDS011;49320;52.512;13.448;2023-06-10T12:23:29;3.78;;;3.25;;
63218;SDS011;49320;52.512;13.448;2023-06-10T12:25:56;8.77;;;4.00;;
63218;SDS011;49320;52.512;13.448;2023-06-10T12:28:26;4.47;;;3.67;;
63218;SDS011;49320;52.512;13.448;2023-06-10T12:31:05;4.43;;;3.80;;
63218;SDS011;49320;52.512;13.448;2023-06-10T12:33:34;4.93;;;4.20;;
63218;SDS011;49320;52.512;13.448;2023-06-10T12:36:01;5.05;;;4.30;;
63218;SDS011;49320;52.512;13.448;2023-06-10T12:38:28;5.45;;;4.38;;
63218;SDS011;49320;52.512;13.448;2023-06-10T12:41:01;4.65;;;4.25;;
63218;SDS011;49320;52.512;13.448;2023-06-10T12:43:30;5.10;;;4.60;;
63218;SDS011;49320;52.512;13.448;2023-06-10T12:46:08;4.80;;;4.38;;
63218;SDS011;49320;52.512;13.448;2023-06-10T12:48:48;5.47;;;4.30;;
63218;SDS011;49320;52.512;13.448;2023-06-10T12:51:20;5.45;;;4.60;;
63218;SDS011;49320;52.512;13.448;2023-06-10T12:53:47;6.20;;;5.47;;
63218;SDS011;49320;52.512;13.448;2023-06-10T12:56:15;7.40;;;4.80;;
63218;SDS011;49320;52.512;13.448;2023-06-10T12:58:41;5.38;;;4.80;;
63218;SDS011;49320;52.512;13.448;2023-06-10T13:01:11;5.97;;;4.57;;
63218;SDS011;49320;52.512;13.448;2023-06-10T13:03:38;5.30;;;4.90;;
63218;SDS011;49320;52.512;13.448;2023-06-10T13:06:06;6.85;;;4.82;;
63218;SDS011;49320;52.512;13.448;2023-06-10T13:08:33;5.03;;;4.63;;
63218;SDS011;49320;52.512;13.448;2023-06-10T13:11:00;6.13;;;5.22;;
63218;SDS011;49320;52.512;13.448;2023-06-10T13:13:27;5.32;;;4.93;;
63218;SDS011;49320;52.512;13.448;2023-06-10T13:15:55;5.68;;;5.18;;
63218;SDS011;49320;52.512;13.448;2023-06-10T13:18:22;5.57;;;5.03;;
63218;SDS011;49320;52.512;13.448;2023-06-10T13:20:49;6.47;;;5.28;;
63218;SDS011;49320;52.512;13.448;2023-06-10T13:23:15;5.32;;;4.82;;
63218;SDS011;49320;52.512;13.448;2023-06-10T13:25:42;6.88;;;5.20;;
63218;SDS011;49320;52.512;13.448;2023-06-10T13:28:10;6.35;;;5.75;;
63218;SDS011;49320;52.512;13.448;2023-06-10T13:30:38;5.35;;;4.85;;
63218;SDS011;49320;52.512;13.448;2023-06-10T13:33:04;5.82;;;5.22;;
63218;SDS011;49320;52.512;13.448;2023-06-10T13:35:31;7.43;;;5.25;;
63218;SDS011;49320;52.512;13.448;2023-06-10T13:37:58;5.80;;;5.07;;
63218;SDS011;49320;52.512;13.448;2023-06-10T13:40:25;6.03;;;5.53;;
63218;SDS011;49320;52.512;13.448;2023-06-10T13:42:52;5.88;;;5.32;;
63218;SDS011;49320;52.512;13.448;2023-06-10T13:45:20;6.07;;;5.13;;
63218;SDS011;49320;52.512;13.448;2023-06-10T13:47:47;5.32;;;4.75;;
63218;SDS011;49320;52.512;13.448;2023-06-10T13:50:14;5.63;;;4.78;;
63218;SDS011;49320;52.512;13.448;2023-06-10T13:52:41;7.55;;;4.95;;
63218;SDS011;49320;52.512;13.448;2023-06-10T13:55:08;9.45;;;5.55;;
63218;SDS011;49320;52.512;13.448;2023-06-10T13:57:36;5.13;;;4.53;;
63218;SDS011;49320;52.512;13.448;2023-06-10T14:00:02;5.75;;;4.85;;
63218;SDS011;49320;52.512;13.448;2023-06-10T14:02:30;6.47;;;4.70;;
63218;SDS011;49320;52.512;13.448;2023-06-10T14:04:57;7.25;;;5.00;;
63218;SDS011;49320;52.512;13.448;2023-06-10T14:07:24;5.40;;;4.57;;
63218;SDS011;49320;52.512;13.448;2023-06-10T14:09:52;5.45;;;4.80;;
63218;SDS011;49320;52.512;13.448;2023-06-10T14:12:19;5.30;;;4.80;;
63218;SDS011;49320;52.512;13.448;2023-06-10T14:14:46;4.85;;;4.45;;
63218;SDS011;49320;52.512;13.448;2023-06-10T14:17:12;4.78;;;4.30;;
63218;SDS011;49320;52.512;13.448;2023-06-10T14:19:40;5.00;;;4.50;;
63218;SDS011;49320;52.512;13.448;2023-06-10T14:22:06;5.32;;;4.82;;
63218;SDS011;49320;52.512;13.448;2023-06-10T14:24:35;5.60;;;4.88;;
63218;SDS011;49320;52.512;13.448;2023-06-10T14:27:05;4.95;;;4.45;;
63218;SDS011;49320;52.512;13.448;2023-06-10T14:29:32;5.25;;;3.88;;
63218;SDS011;49320;52.512;13.448;2023-06-10T14:32:00;4.45;;;4.00;;
63218;SDS011;49320;52.512;13.448;2023-06-10T14:34:27;5.97;;;4.18;;
63218;SDS011;49320;52.512;13.448;2023-06-10T14:36:55;5.00;;;4.50;;
63218;SDS011;49320;52.512;13.448;2023-06-10T14:39:22;4.82;;;4.30;;
63218;SDS011;49320;52.512;13.448;2023-06-10T14:41:49;5.10;;;4.28;;
63218;SDS011;49320;52.512;13.448;2023-06-10T14:44:18;3.97;;;3.58;;
63218;SDS011;49320;52.512;13.448;2023-06-10T14:46:45;4.65;;;4.20;;
63218;SDS011;49320;52.512;13.448;2023-06-10T14:49:12;4.75;;;4.28;;
63218;SDS011;49320;52.512;13.448;2023-06-10T14:51:39;6.85;;;3.97;;
63218;SDS011;49320;52.512;13.448;2023-06-10T14:54:06;6.97;;;4.13;;
63218;SDS011;49320;52.512;13.448;2023-06-10T14:56:33;6.55;;;4.25;;
63218;SDS011;49320;52.512;13.448;2023-06-10T14:58:59;5.68;;;4.22;;